Time;durP1;ratioP1;P1;durP2;ratioP2;P2;SDS_P1;SDS_P2;PMS_P1;PMS_P2;Temp;Humidity;BMP_temperature;BMP_pressure;BME280_temperature;BME280_humidity;BME280_pressure;Samples;Min_cycle;Max_cycle;Signal;HPM_P1;HPM_P2
2023/02/23 00:04:51;;;;;;;14.30;7.90;;;;;;;4.41;58.63;99204.95;232730;1193;124893;-70
2023/02/23 00:09:57;;;;;;;15.40;8.10;;;;;;;4.36;58.81;99207.06;232582;1196;138428;-70
2023/02/23 00:15:01;;;;;;;14.40;8.80;;;;;;;4.35;58.75;99205.16;229587;1199;138678;-70
2023/02/23 00:20:12;;;;;;;14.10;7.80;;;;;;;4.36;58.75;99203.05;230214;1198;139476;-71
2023/02/23 00:25:17;;;;;;;14.10;8.30;;;;;;;4.34;58.46;99202.04;231040;1199;138041;-70
2023/02/23 00:30:20;;;;;;;12.00;7.90;;;;;;;4.31;58.58;99201.24;228911;1199;139002;-69
2023/02/23 00:35:23;;;;;;;15.50;8.60;;;;;;;4.28;58.65;99203.13;229902;1199;140462;-72
2023/02/23 00:40:28;;;;;;;14.00;8.00;;;;;;;4.27;58.65;99197.71;229388;1199;138703;-73
2023/02/23 00:45:32;;;;;;;16.30;8.00;;;;;;;4.22;58.65;99197.17;228755;1199;138406;-72
2023/02/23 00:50:37;;;;;;;16.10;7.90;;;;;;;4.21;58.82;99200.89;229028;1199;138381;-71
2023/02/23 00:55:41;;;;;;;14.80;8.90;;;;;;;4.19;58.72;99200.77;231824;1196;138501;-72
2023/02/23 01:00:45;;;;;;;16.10;8.20;;;;;;;4.20;58.58;99204.97;228884;1194;138892;-71
2023/02/23 01:05:49;;;;;;;16.80;8.70;;;;;;;4.18;58.46;99200.66;229498;1199;138918;-72
2023/02/23 01:10:52;;;;;;;17.40;8.90;;;;;;;4.14;58.72;99197.96;228538;1199;139469;-69
2023/02/23 01:15:55;;;;;;;18.90;9.50;;;;;;;4.11;58.67;99199.48;229425;1194;138983;-71
2023/02/23 01:21:04;;;;;;;17.10;10.20;;;;;;;4.07;58.76;99195.23;229604;1199;138507;-70
2023/02/23 01:26:17;;;;;;;17.20;9.90;;;;;;;4.02;58.90;99192.55;230764;1196;139219;-69
2023/02/23 01:31:23;;;;;;;17.40;9.90;;;;;;;3.98;58.80;99186.71;230820;1198;139456;-71
2023/02/23 01:36:28;;;;;;;18.50;9.80;;;;;;;3.93;58.86;99186.54;230968;1199;139188;-72
2023/02/23 01:41:32;;;;;;;18.10;9.70;;;;;;;3.90;58.74;99188.04;229184;1199;139252;-73
2023/02/23 01:46:38;;;;;;;20.30;10.10;;;;;;;3.89;58.94;99183.87;228750;1199;138458;-70
2023/02/23 01:51:47;;;;;;;20.40;10.40;;;;;;;3.86;59.03;99179.23;230508;1199;138636;-71
2023/02/23 01:56:57;;;;;;;22.20;11.10;;;;;;;3.82;59.11;99172.16;229408;1199;138514;-71
2023/02/23 02:02:04;;;;;;;22.50;11.00;;;;;;;3.79;59.19;99169.27;229354;1193;139025;-71
2023/02/23 02:07:08;;;;;;;18.00;10.30;;;;;;;3.79;59.12;99164.20;230632;1197;140433;-71
2023/02/23 02:12:13;;;;;;;17.60;10.20;;;;;;;3.76;59.21;99164.45;229914;1198;138689;-72
2023/02/23 02:17:24;;;;;;;18.10;10.20;;;;;;;3.72;59.42;99163.02;230386;1196;139368;-71
2023/02/23 02:22:49;;;;;;;20.10;10.70;;;;;;;3.70;59.47;99158.00;229403;1199;139005;-72
2023/02/23 02:28:03;;;;;;;18.40;10.30;;;;;;;3.66;59.53;99148.65;230421;1199;138348;-72
2023/02/23 02:33:30;;;;;;;15.90;9.80;;;;;;;3.62;59.55;99151.07;230669;1196;138938;-74
2023/02/23 02:38:52;;;;;;;14.80;9.50;;;;;;;3.59;59.50;99148.34;229798;1198;138309;-72
2023/02/23 02:44:24;;;;;;;14.80;9.20;;;;;;;3.58;59.53;99146.63;232201;1193;138470;-72
2023/02/23 02:49:41;;;;;;;14.40;8.70;;;;;;;3.54;59.29;99144.11;229268;1196;138722;-72
2023/02/23 02:54:56;;;;;;;15.30;9.20;;;;;;;3.54;59.35;99138.50;231211;1198;138701;-72
2023/02/23 04:18:05;;;;;;;14.10;8.50;;;;;;;3.16;59.14;99124.27;230750;1196;139177;-71
2023/02/23 04:23:10;;;;;;;13.00;8.30;;;;;;;3.13;59.30;99125.92;230138;1199;138182;-70
2023/02/23 04:28:13;;;;;;;12.70;8.50;;;;;;;3.10;59.21;99121.31;229365;1196;139246;-71
2023/02/23 04:33:20;;;;;;;13.80;8.50;;;;;;;3.05;59.44;99118.80;230300;1195;138352;-71
2023/02/23 04:38:24;;;;;;;11.80;8.40;;;;;;;3.03;59.27;99118.52;231130;1199;138884;-71
2023/02/23 04:43:28;;;;;;;14.80;9.10;;;;;;;3.02;59.59;99110.83;229715;1198;138243;-71
2023/02/23 04:48:31;;;;;;;13.00;8.60;;;;;;;3.02;59.59;99113.83;229314;1199;138985;-71
2023/02/23 04:53:34;;;;;;;14.50;8.80;;;;;;;3.00;59.50;99111.07;228924;1196;139016;-70
2023/02/23 04:58:38;;;;;;;14.40;8.50;;;;;;;2.99;59.50;99111.11;230747;1196;137788;-72
2023/02/23 05:03:41;;;;;;;14.60;8.60;;;;;;;2.93;59.74;99106.19;229323;1199;138337;-71
2023/02/23 05:08:45;;;;;;;14.00;8.70;;;;;;;2.91;59.60;99112.06;229491;1198;138745;-74
2023/02/23 05:13:48;;;;;;;15.50;8.10;;;;;;;2.85;60.05;99110.47;229313;1194;138495;-74
2023/02/23 05:18:52;;;;;;;14.00;9.00;;;;;;;2.84;60.07;99106.99;229335;1199;139084;-72
2023/02/23 05:23:56;;;;;;;13.70;8.80;;;;;;;2.84;60.03;99107.86;228962;1199;138343;-71
2023/02/23 05:29:33;;;;;;;14.50;9.10;;;;;;;2.84;60.13;99107.00;231180;1197;138325;-71
2023/02/23 05:34:41;;;;;;;13.10;8.40;;;;;;;2.82;60.23;99112.84;230405;1193;138086;-70
2023/02/23 05:39:46;;;;;;;15.20;8.30;;;;;;;2.80;60.23;99119.03;229501;1198;138763;-70
2023/02/23 05:44:49;;;;;;;13.80;9.10;;;;;;;2.78;60.45;99120.14;230641;1198;139323;-71
2023/02/23 05:49:52;;;;;;;12.70;7.70;;;;;;;2.76;60.66;99122.66;228755;1199;138847;-70
2023/02/23 05:54:56;;;;;;;15.60;9.30;;;;;;;2.71;60.76;99120.88;228769;1198;138109;-71
2023/02/23 06:00:00;;;;;;;87.60;55.90;;;;;;;2.80;61.43;99119.05;229826;1193;138873;-72
2023/02/23 06:05:08;;;;;;;105.50;61.90;;;;;;;2.83;61.02;99122.27;229147;1197;138658;-70
2023/02/23 06:10:12;;;;;;;18.30;11.40;;;;;;;2.82;61.04;99121.24;230971;1194;139546;-67
2023/02/23 06:15:15;;;;;;;16.60;9.90;;;;;;;2.90;61.88;99120.66;229763;1195;138398;-70
2023/02/23 06:20:18;;;;;;;15.10;9.30;;;;;;;2.91;61.10;99125.70;232786;1195;138772;-69
2023/02/23 06:25:22;;;;;;;14.20;9.40;;;;;;;2.94;61.18;99130.37;230058;1196;139309;-73
2023/02/23 06:30:28;;;;;;;15.50;8.90;;;;;;;2.96;61.02;99133.11;229897;1196;140506;-72
2023/02/23 06:35:33;;;;;;;118.00;73.30;;;;;;;3.01;61.59;99134.52;230978;1196;138544;-71
2023/02/23 06:40:38;;;;;;;;;;;;;;;3.09;62.93;99136.75;231199;1196;138832;-71
2023/02/23 06:45:46;;;;;;;20.00;13.40;;;;;;;3.36;61.80;99135.59;230912;1197;125196;-74
2023/02/23 06:50:49;;;;;;;16.30;10.10;;;;;;;3.40;61.52;99134.75;230780;1196;138240;-72
2023/02/23 06:55:52;;;;;;;19.80;10.90;;;;;;;3.38;61.11;99139.55;229756;1196;139303;-73
2023/02/23 07:00:58;;;;;;;13.80;9.40;;;;;;;3.36;61.15;99140.64;229617;1196;138340;-72
2023/02/23 07:06:03;;;;;;;15.80;9.90;;;;;;;3.39;61.23;99137.23;229854;1193;113816;-68
2023/02/23 07:11:40;;;;;;;16.60;9.60;;;;;;;3.44;61.17;99138.65;229444;1198;138364;-68
2023/02/23 07:17:34;;;;;;;15.50;10.30;;;;;;;3.46;61.18;99137.73;229247;1198;138113;-69
2023/02/23 07:22:37;;;;;;;16.00;9.70;;;;;;;3.51;61.07;99142.30;230373;1193;138369;-69
2023/02/23 07:28:14;;;;;;;61.10;37.60;;;;;;;3.57;61.44;99143.66;230048;1196;138452;-70
2023/02/23 07:33:18;;;;;;;19.00;11.30;;;;;;;3.73;61.48;99142.65;229233;1198;138814;-69
2023/02/23 07:38:24;;;;;;;17.40;9.80;;;;;;;3.79;61.28;99136.30;229376;1192;138901;-69
2023/02/23 07:43:29;;;;;;;17.80;9.50;;;;;;;3.83;61.30;99137.05;229238;1196;137993;-71
2023/02/23 07:49:05;;;;;;;21.20;10.60;;;;;;;3.90;61.37;99133.98;229024;1196;138656;-69
2023/02/23 07:54:41;;;;;;;;;;;;;;;4.00;61.10;99134.16;229696;1196;139783;-70
2023/02/23 08:00:50;;;;;;;18.60;10.80;;;;;;;4.09;60.61;99129.69;229130;1198;107025;-70
2023/02/23 08:05:55;;;;;;;17.60;10.90;;;;;;;4.17;60.87;99131.85;230471;1198;140725;-71
2023/02/23 08:11:03;;;;;;;18.20;10.80;;;;;;;4.22;60.91;99129.73;229233;1199;139000;-69
2023/02/23 08:16:07;;;;;;;137.20;85.70;;;;;;;4.30;61.12;99127.38;232279;1196;138941;-68
2023/02/23 08:21:10;;;;;;;23.40;14.10;;;;;;;4.45;61.36;99125.07;229810;1195;138942;-69
2023/02/23 08:26:14;;;;;;;18.70;11.80;;;;;;;4.54;60.79;99124.77;233017;1195;138542;-67
2023/02/23 08:31:19;;;;;;;19.00;11.20;;;;;;;4.62;60.30;99121.63;232777;1193;138547;-70
2023/02/23 08:36:23;;;;;;;16.90;11.00;;;;;;;4.68;60.60;99122.46;233750;1196;138874;-70
2023/02/23 08:41:27;;;;;;;21.10;13.30;;;;;;;4.76;60.30;99123.08;230811;1198;139545;-70
2023/02/23 08:46:31;;;;;;;19.30;12.20;;;;;;;4.85;60.31;99121.14;231690;1196;138750;-69
2023/02/23 08:51:35;;;;;;;188.40;114.40;;;;;;;4.96;60.37;99122.86;233041;1195;138511;-70
2023/02/23 08:56:41;;;;;;;27.20;17.20;;;;;;;5.13;60.20;99117.79;232152;1193;139022;-70
2023/02/23 09:01:44;;;;;;;20.30;12.40;;;;;;;5.25;59.53;99117.50;228987;1199;138490;-69
2023/02/23 09:06:49;;;;;;;18.00;12.00;;;;;;;5.34;59.41;99111.88;230454;1196;138602;-69
2023/02/23 09:11:52;;;;;;;246.50;168.40;;;;;;;5.44;59.17;99112.18;230993;1196;139874;-72
2023/02/23 09:16:55;;;;;;;43.60;26.90;;;;;;;5.59;59.70;99106.10;228956;1198;139317;-69
2023/02/23 09:21:58;;;;;;;23.30;14.00;;;;;;;5.77;59.36;99105.38;229173;1199;138699;-69
2023/02/23 09:27:02;;;;;;;22.50;13.30;;;;;;;5.86;58.66;99105.70;229123;1198;138774;-69
2023/02/23 09:32:05;;;;;;;20.30;13.30;;;;;;;5.96;58.75;99107.81;229978;1196;138653;-69
2023/02/23 09:37:09;;;;;;;19.60;12.60;;;;;;;6.11;58.63;99106.62;228763;1197;138598;-70
2023/02/23 09:42:27;;;;;;;23.70;13.20;;;;;;;6.21;58.25;99102.67;229166;1197;138598;-69
2023/02/23 09:47:35;;;;;;;20.60;12.20;;;;;;;6.36;58.18;99096.04;231156;1194;138685;-69
2023/02/23 09:52:43;;;;;;;25.90;12.50;;;;;;;6.50;58.05;99102.66;228949;1198;139011;-69
2023/02/23 09:57:48;;;;;;;21.70;12.80;;;;;;;6.63;57.68;99096.23;229930;1198;139978;-70
2023/02/23 10:03:07;;;;;;;25.60;14.10;;;;;;;6.80;57.72;99092.48;229920;1196;138609;-69
2023/02/23 10:08:23;;;;;;;22.70;13.10;;;;;;;6.97;57.69;99091.18;231037;1193;138895;-69
2023/02/23 10:13:29;;;;;;;22.30;13.90;;;;;;;7.15;57.26;99087.66;229264;1196;138699;-68
2023/02/23 10:18:55;;;;;;;;;;;;;;;7.28;57.07;99087.02;229160;1199;138754;-68
2023/02/23 10:24:25;;;;;;;18.80;12.20;;;;;;;7.39;56.93;99081.22;231029;1197;124998;-69
2023/02/23 10:29:35;;;;;;;23.40;13.40;;;;;;;7.57;56.83;99071.69;228958;1198;139332;-69
2023/02/23 10:34:39;;;;;;;21.80;14.00;;;;;;;7.75;56.65;99066.22;231498;1193;139107;-70
2023/02/23 10:39:43;;;;;;;25.40;13.70;;;;;;;7.94;56.67;99064.73;229273;1196;138639;-71
2023/02/23 10:44:47;;;;;;;20.20;13.40;;;;;;;8.15;56.06;99057.60;229550;1198;138763;-70
2023/02/23 10:49:53;;;;;;;22.20;13.80;;;;;;;8.34;55.82;99054.33;229463;1198;139290;-70
2023/02/23 10:54:59;;;;;;;29.00;15.30;;;;;;;8.56;55.46;99045.75;229431;1198;139055;-71
2023/02/23 11:00:25;;;;;;;117.30;75.20;;;;;;;8.77;55.11;99042.69;232133;1196;138886;-68
2023/02/23 11:05:42;;;;;;;27.70;16.20;;;;;;;9.01;54.83;99034.64;230968;1196;139781;-69
2023/02/23 11:10:55;;;;;;;22.90;14.70;;;;;;;9.10;53.82;99026.89;230574;1195;138838;-68
2023/02/23 11:16:18;;;;;;;25.60;15.60;;;;;;;9.22;53.73;99018.58;231754;1193;138871;-69
2023/02/23 11:21:25;;;;;;;24.70;14.60;;;;;;;9.33;53.42;99010.91;233102;1195;139682;-69
2023/02/23 11:26:36;;;;;;;31.70;16.90;;;;;;;9.52;53.42;99008.92;233591;1195;139018;-69
2023/02/23 11:31:49;;;;;;;28.20;15.20;;;;;;;9.61;53.27;99000.38;231174;1195;139225;-69
2023/02/23 11:37:06;;;;;;;27.00;14.90;;;;;;;9.76;53.26;98991.01;231234;1196;139181;-69
2023/02/23 11:42:16;;;;;;;28.60;16.60;;;;;;;9.83;52.74;98983.54;231487;1194;139178;-69
2023/02/23 11:47:22;;;;;;;30.80;16.40;;;;;;;9.90;52.37;98979.02;234977;1195;139510;-68
2023/02/23 11:52:26;;;;;;;28.00;15.80;;;;;;;9.96;52.24;98981.46;235282;1195;139065;-68
2023/02/23 11:57:33;;;;;;;27.50;15.00;;;;;;;10.08;52.45;98978.48;230988;1195;139048;-69
2023/02/23 12:02:52;;;;;;;30.80;14.50;;;;;;;10.24;52.61;98973.08;230408;1195;140134;-68
2023/02/23 12:08:03;;;;;;;27.50;15.30;;;;;;;10.34;51.86;98964.81;229901;1198;139571;-69
2023/02/23 12:13:06;;;;;;;24.00;14.00;;;;;;;10.46;51.97;98954.01;229795;1196;139421;-68
2023/02/23 12:18:36;;;;;;;21.70;13.30;;;;;;;10.60;52.60;98950.23;229920;1192;139607;-71
2023/02/23 12:23:43;;;;;;;26.10;15.30;;;;;;;10.77;52.14;98945.11;229069;1194;140335;-69
2023/02/23 12:29:10;;;;;;;23.80;13.80;;;;;;;10.79;51.70;98943.50;230064;1195;139029;-69
2023/02/23 12:34:23;;;;;;;25.70;14.10;;;;;;;10.77;52.05;98941.35;230505;1198;139273;-69
2023/02/23 12:39:35;;;;;;;27.10;14.60;;;;;;;10.70;52.16;98933.69;230042;1193;139428;-71
2023/02/23 12:44:51;;;;;;;32.60;16.10;;;;;;;10.62;51.81;98930.25;232637;1194;139648;-70
2023/02/23 12:50:06;;;;;;;26.00;13.30;;;;;;;10.52;51.91;98922.03;232193;1193;141274;-68
2023/02/23 12:55:12;;;;;;;20.50;13.80;;;;;;;10.46;52.49;98916.38;233584;1196;138999;-70
2023/02/23 13:00:38;;;;;;;23.80;13.40;;;;;;;10.42;52.61;98905.31;231821;1197;139081;-71
2023/02/23 13:05:50;;;;;;;;;;;;;;;10.39;53.07;98898.02;230246;1198;138873;-69
2023/02/23 13:11:02;;;;;;;19.70;12.90;;;;;;;10.43;53.30;98895.64;229891;1197;125460;-70
2023/02/23 13:16:25;;;;;;;22.80;13.60;;;;;;;10.48;53.64;98892.30;234074;1193;138711;-71
2023/02/23 13:21:43;;;;;;;22.10;13.60;;;;;;;10.52;53.49;98891.02;231487;1193;138645;-70
2023/02/23 13:27:14;;;;;;;23.70;13.00;;;;;;;10.60;53.47;98886.58;231808;1193;138868;-70
2023/02/23 13:32:28;;;;;;;25.30;13.50;;;;;;;10.65;53.09;98882.14;235290;1193;139795;-70
2023/02/23 13:37:50;;;;;;;24.00;12.20;;;;;;;10.69;53.47;98874.61;231348;1194;138939;-69
2023/02/23 13:43:16;;;;;;;20.80;12.10;;;;;;;10.72;53.04;98867.86;230536;1193;138796;-67
2023/02/23 13:48:32;;;;;;;;;;;;;;;10.74;53.16;98862.06;229419;1198;140078;-70
2023/02/23 13:53:46;;;;;;;19.80;11.70;;;;;;;10.75;53.24;98855.73;230417;1195;125193;-70
2023/02/23 13:58:56;;;;;;;21.90;11.30;;;;;;;10.74;52.74;98851.75;229301;1198;139805;-71
2023/02/23 14:04:03;;;;;;;21.10;11.20;;;;;;;10.73;53.16;98846.85;231141;1195;140048;-69
2023/02/23 14:09:20;;;;;;;20.40;11.10;;;;;;;10.72;52.90;98836.45;232031;1198;139133;-70
2023/02/23 14:14:30;;;;;;;19.30;11.10;;;;;;;10.73;53.31;98833.39;231309;1194;139296;-69
2023/02/23 14:19:41;;;;;;;21.40;11.10;;;;;;;10.70;53.10;98833.40;229334;1198;138867;-68
2023/02/23 14:24:45;;;;;;;71.60;46.30;;;;;;;10.69;53.51;98832.76;229596;1198;138985;-70
2023/02/23 14:30:10;;;;;;;22.30;12.40;;;;;;;10.69;53.42;98826.35;228576;1201;138637;-69
2023/02/23 14:35:32;;;;;;;;;;;;;;;10.66;53.78;98823.03;229459;1198;139070;-69
2023/02/23 14:40:41;;;;;;;22.70;11.70;;;;;;;10.59;53.69;98815.09;231245;1195;126359;-71
2023/02/23 14:45:45;;;;;;;21.10;11.20;;;;;;;10.55;53.71;98808.64;232541;1195;138919;-68
2023/02/23 14:50:51;;;;;;;24.40;11.50;;;;;;;10.54;53.60;98801.63;230518;1198;138994;-69
2023/02/23 14:55:57;;;;;;;20.30;11.10;;;;;;;10.54;54.02;98800.23;233578;1195;139251;-70
2023/02/23 15:01:01;;;;;;;22.60;11.10;;;;;;;10.50;53.91;98794.77;232040;1195;139369;-71
2023/02/23 15:06:05;;;;;;;23.60;11.40;;;;;;;10.46;54.40;98790.45;233463;1198;139766;-70
2023/02/23 15:11:13;;;;;;;20.20;11.30;;;;;;;10.43;54.26;98780.02;229599;1198;139668;-70
2023/02/23 15:16:35;;;;;;;24.60;10.80;;;;;;;10.40;54.54;98771.69;229984;1198;139434;-69
2023/02/23 15:21:40;;;;;;;23.40;10.80;;;;;;;10.36;54.98;98771.20;234163;1195;139238;-70
2023/02/23 15:26:44;;;;;;;21.40;11.20;;;;;;;10.32;54.91;98765.09;229944;1195;139480;-69
2023/02/23 15:31:51;;;;;;;19.40;11.20;;;;;;;10.31;54.94;98765.35;232538;1195;139735;-69
2023/02/23 15:36:58;;;;;;;20.70;10.60;;;;;;;10.28;55.13;98758.45;231034;1196;139309;-69
2023/02/23 15:42:04;;;;;;;21.90;10.70;;;;;;;10.22;55.20;98753.18;229369;1198;138962;-69
2023/02/23 15:47:32;;;;;;;21.40;10.90;;;;;;;10.16;55.40;98746.75;231817;1195;139098;-69
2023/02/23 15:52:44;;;;;;;27.30;11.50;;;;;;;10.10;55.84;98744.15;230039;1195;139108;-70
2023/02/23 15:58:00;;;;;;;22.10;11.90;;;;;;;10.04;55.93;98734.29;231562;1195;139184;-69
2023/02/23 16:10:17;;;;;;;24.20;12.70;;;;;;;9.90;56.37;98732.55;229219;1198;140347;-70
2023/02/23 16:15:42;;;;;;;23.80;12.40;;;;;;;9.80;56.62;98726.45;230731;1195;139120;-70
2023/02/23 16:20:54;;;;;;;30.00;12.60;;;;;;;9.74;56.83;98726.81;229235;1198;138833;-69
2023/02/23 16:26:59;;;;;;;27.60;12.60;;;;;;;9.75;57.50;98724.80;229786;1199;138329;-71
2023/02/23 16:32:16;;;;;;;26.20;14.20;;;;;;;9.81;56.92;98721.61;229307;1195;138297;-73
2023/02/23 16:37:24;;;;;;;25.00;13.00;;;;;;;9.78;56.61;98721.95;229731;1199;138981;-72
2023/02/23 16:42:33;;;;;;;22.80;12.90;;;;;;;9.70;56.95;98718.02;229111;1198;139598;-72
2023/02/23 16:53:59;;;;;;;32.80;14.30;;;;;;;9.56;57.34;98723.89;229011;1201;138543;-73
2023/02/23 16:59:03;;;;;;;28.80;14.20;;;;;;;9.52;57.70;98720.77;229802;1201;138571;-72
2023/02/23 17:05:14;;;;;;;27.70;14.50;;;;;;;9.48;57.72;98716.45;229070;1200;139504;-72
2023/02/23 17:10:35;;;;;;;38.40;14.80;;;;;;;9.43;57.48;98714.27;229019;1199;138741;-71
2023/02/23 17:16:12;;;;;;;33.60;15.90;;;;;;;9.38;57.97;98710.48;229198;1207;139315;-71
2023/02/23 17:21:22;;;;;;;31.00;16.00;;;;;;;9.33;58.06;98713.11;229406;1198;137763;-72
2023/02/23 17:26:27;;;;;;;29.80;15.30;;;;;;;9.30;57.96;98711.54;229490;1197;108097;-71
2023/02/23 17:32:03;;;;;;;32.20;16.40;;;;;;;9.25;58.01;98704.38;229196;1198;138696;-72
2023/02/23 17:37:09;;;;;;;34.30;17.20;;;;;;;9.19;58.26;98697.86;229481;1199;138482;-72
2023/02/23 17:42:45;;;;;;;32.20;16.60;;;;;;;9.14;58.38;98695.02;229222;1198;138301;-73
2023/02/23 18:00:21;;;;;;;30.10;18.20;;;;;;;9.03;58.73;98673.73;229765;1196;138431;-71
2023/02/23 18:19:01;;;;;;;37.80;19.40;;;;;;;8.91;59.02;98666.11;230703;1197;138219;-73
2023/02/23 19:45:59;;;;;;;;;;;;;;;;;;;;;
2023/02/23 19:51:51;;;;;;;;;;;;;;;;;;;;;
2023/02/23 19:57:56;;;;;;;62.30;24.40;;;;;;;8.14;61.85;98628.84;234931;1196;139689;-68
2023/02/23 20:04:08;;;;;;;58.80;24.10;;;;;;;8.08;62.04;98629.17;234842;1196;139489;-67
2023/02/23 20:09:38;;;;;;;;;;;;;;;;;;;;;
2023/02/23 20:15:35;;;;;;;75.80;27.90;;;;;;;8.06;62.40;98629.67;235697;1190;137956;-68
2023/02/23 20:22:07;;;;;;;74.50;27.40;;;;;;;8.05;62.52;98626.52;235815;1191;138336;-66
2023/02/23 20:26:58;;;;;;;;;;;;;;;;;;;;;
2023/02/23 20:32:06;;;;;;;69.40;27.20;;;;;;;8.26;63.44;98616.09;235720;1192;138747;-66
2023/02/23 20:38:32;;;;;;;82.80;28.60;;;;;;;8.24;62.56;98616.06;235834;1193;138651;-70
2023/02/23 20:43:59;;;;;;;81.30;31.00;;;;;;;8.23;62.70;98609.20;235735;1191;139491;-64
2023/02/23 20:49:19;;;;;;;86.90;35.30;;;;;;;8.27;62.36;98603.81;235756;1193;139013;-66
2023/02/23 20:55:07;;;;;;;;;;;;;;;;;;;;;
2023/02/23 21:01:11;;;;;;;;;;;;;;;;;;;;;
2023/02/23 21:06:40;;;;;;;78.00;35.90;;;;;;;8.12;62.36;98596.06;235791;1190;139432;-67
2023/02/23 21:12:09;;;;;;;76.10;37.20;;;;;;;8.05;62.43;98594.76;235937;1192;138936;-65
2023/02/23 21:17:16;;;;;;;83.50;38.30;;;;;;;7.98;62.47;98588.40;235601;1190;138953;-64
2023/02/23 21:22:52;;;;;;;72.10;36.90;;;;;;;7.92;62.87;98589.30;235734;1192;138559;-67
2023/02/23 21:28:19;;;;;;;81.60;40.70;;;;;;;7.86;63.04;98582.77;235799;1192;138416;-66
2023/02/23 21:33:30;;;;;;;80.60;41.70;;;;;;;7.83;62.98;98583.27;235743;1190;138681;-66
2023/02/23 21:39:16;;;;;;;;;;;;;;;;;;;;;
2023/02/23 21:45:32;;;;;;;80.40;42.30;;;;;;;7.76;62.98;98567.65;235603;1193;139182;-66
2023/02/23 21:51:29;;;;;;;78.00;40.90;;;;;;;7.70;63.18;98557.39;235660;1193;138582;-65
2023/02/23 21:57:35;;;;;;;81.10;43.30;;;;;;;7.65;63.72;98552.19;235218;1193;139614;-67
2023/02/23 22:03:53;;;;;;;;;;;;;;;;;;;;;
2023/02/23 22:09:15;;;;;;;87.00;43.70;;;;;;;7.59;63.86;98550.45;235785;1192;138034;-68
2023/02/23 22:15:09;;;;;;;90.80;45.80;;;;;;;7.59;63.81;98541.08;235713;1193;138666;-67
2023/02/23 22:21:17;;;;;;;;;;;;;;;;;;;;;
2023/02/23 22:27:02;;;;;;;84.70;40.10;;;;;;;7.79;63.83;98510.05;235856;1192;139282;-66
2023/02/23 22:38:43;;;;;;;71.40;38.20;;;;;;;8.07;63.38;98503.83;235680;1192;139134;-66
2023/02/23 22:44:07;;;;;;;;;;;;;;;;;;;;;
2023/02/23 22:50:22;;;;;;;81.70;41.10;;;;;;;8.17;63.12;98495.27;235812;1193;138733;-66
2023/02/23 22:56:15;;;;;;;;;;;;;;;;;;;;;
2023/02/23 23:02:22;;;;;;;85.40;41.10;;;;;;;8.10;63.23;98482.09;235871;1192;139230;-68
2023/02/23 23:08:35;;;;;;;85.80;40.60;;;;;;;8.00;63.43;98474.70;235777;1192;138544;-65
2023/02/23 23:14:20;;;;;;;81.40;41.00;;;;;;;7.92;63.59;98470.95;235761;1193;138267;-65
2023/02/23 23:20:03;;;;;;;76.80;41.00;;;;;;;7.89;63.72;98464.30;235827;1192;138983;-65
2023/02/23 23:25:46;;;;;;;;;;;;;;;;;;;;;
2023/02/23 23:31:55;;;;;;;;;;;;;;;;;;;;;
2023/02/23 23:37:40;;;;;;;;;;;;;;;;;;;;;
2023/02/23 23:43:45;;;;;;;84.50;41.20;;;;;;;7.72;64.41;98441.62;235804;1192;139068;-64
2023/02/23 23:56:06;;;;;;;76.50;39.40;;;;;;;7.67;64.62;98435.02;235772;1192;138486;-64
